sensor_id;sensor_type;location;lat;lon;timestamp;pressure;altitude;pressure_sealevel;temperature;humidity
57900;BME280;60605;53.716;19.940;2023-02-02T00:04:35;98832.84;;;2.71;100.00
57900;BME280;60605;53.716;19.940;2023-02-02T00:09:38;98826.48;;;2.71;100.00
57900;BME280;60605;53.716;19.940;2023-02-02T00:14:41;98823.42;;;2.72;100.00
57900;BME280;60605;53.716;19.940;2023-02-02T00:19:45;98819.48;;;2.71;100.00
57900;BME280;60605;53.716;19.940;2023-02-02T00:24:48;98818.15;;;2.70;100.00
57900;BME280;60605;53.716;19.940;2023-02-02T00:29:52;98816.01;;;2.68;100.00
57900;BME280;60605;53.716;19.940;2023-02-02T00:34:55;98820.64;;;2.68;100.00
57900;BME280;60605;53.716;19.940;2023-02-02T00:39:58;98817.39;;;2.67;100.00
57900;BME280;60605;53.716;19.940;2023-02-02T00:45:02;98808.49;;;2.66;100.00
57900;BME280;60605;53.716;19.940;2023-02-02T00:50:19;98810.39;;;2.64;100.00
57900;BME280;60605;53.716;19.940;2023-02-02T00:55:22;98813.84;;;2.63;100.00
57900;BME280;60605;53.716;19.940;2023-02-02T01:00:27;98813.30;;;2.61;100.00
57900;BME280;60605;53.716;19.940;2023-02-02T01:05:31;98817.25;;;2.57;100.00
57900;BME280;60605;53.716;19.940;2023-02-02T01:10:35;98817.72;;;2.48;100.00
57900;BME280;60605;53.716;19.940;2023-02-02T01:15:38;98816.04;;;2.37;100.00
57900;BME280;60605;53.716;19.940;2023-02-02T01:20:42;98821.90;;;2.25;100.00
57900;BME280;60605;53.716;19.940;2023-02-02T01:25:52;98824.52;;;2.10;100.00
57900;BME280;60605;53.716;19.940;2023-02-02T01:30:56;98823.24;;;1.95;100.00
57900;BME280;60605;53.716;19.940;2023-02-02T01:36:03;98818.33;;;1.82;100.00
57900;BME280;60605;53.716;19.940;2023-02-02T01:41:08;98816.60;;;1.72;100.00
57900;BME280;60605;53.716;19.940;2023-02-02T01:46:16;98813.71;;;1.65;100.00
57900;BME280;60605;53.716;19.940;2023-02-02T01:51:22;98816.67;;;1.61;100.00
57900;BME280;60605;53.716;19.940;2023-02-02T01:56:39;98817.10;;;1.58;100.00
57900;BME280;60605;53.716;19.940;2023-02-02T02:01:45;98810.44;;;1.58;100.00
57900;BME280;60605;53.716;19.940;2023-02-02T02:06:49;98810.05;;;1.58;100.00
57900;BME280;60605;53.716;19.940;2023-02-02T02:11:55;98808.95;;;1.61;100.00
57900;BME280;60605;53.716;19.940;2023-02-02T02:22:13;98807.08;;;1.66;100.00
57900;BME280;60605;53.716;19.940;2023-02-02T02:28:08;98804.58;;;1.68;100.00
57900;BME280;60605;53.716;19.940;2023-02-02T02:33:42;98803.00;;;1.71;100.00
57900;BME280;60605;53.716;19.940;2023-02-02T02:38:49;98802.11;;;1.73;100.00
57900;BME280;60605;53.716;19.940;2023-02-02T02:44:05;98799.74;;;1.75;100.00
57900;BME280;60605;53.716;19.940;2023-02-02T02:49:11;98802.05;;;1.79;100.00
57900;BME280;60605;53.716;19.940;2023-02-02T02:54:18;98800.72;;;1.84;100.00
57900;BME280;60605;53.716;19.940;2023-02-02T03:09:58;98793.83;;;2.03;100.00
57900;BME280;60605;53.716;19.940;2023-02-02T03:15:04;98794.92;;;2.08;100.00
57900;BME280;60605;53.716;19.940;2023-02-02T03:20:09;98797.70;;;2.14;100.00
57900;BME280;60605;53.716;19.940;2023-02-02T03:25:12;98793.50;;;2.22;100.00
57900;BME280;60605;53.716;19.940;2023-02-02T03:30:18;98798.68;;;2.29;100.00
57900;BME280;60605;53.716;19.940;2023-02-02T03:35:23;98796.53;;;2.37;100.00
57900;BME280;60605;53.716;19.940;2023-02-02T03:40:28;98798.41;;;2.45;100.00
57900;BME280;60605;53.716;19.940;2023-02-02T03:45:31;98795.52;;;2.52;100.00
57900;BME280;60605;53.716;19.940;2023-02-02T03:50:37;98787.45;;;2.57;100.00
57900;BME280;60605;53.716;19.940;2023-02-02T03:55:40;98787.77;;;2.61;100.00
57900;BME280;60605;53.716;19.940;2023-02-02T04:00:43;98792.44;;;2.64;100.00
57900;BME280;60605;53.716;19.940;2023-02-02T04:05:49;98801.14;;;2.67;100.00
57900;BME280;60605;53.716;19.940;2023-02-02T04:10:53;98801.46;;;2.69;100.00
57900;BME280;60605;53.716;19.940;2023-02-02T04:16:00;98798.17;;;2.71;100.00
57900;BME280;60605;53.716;19.940;2023-02-02T04:21:04;98802.17;;;2.73;100.00
57900;BME280;60605;53.716;19.940;2023-02-02T04:26:08;98804.82;;;2.75;100.00
57900;BME280;60605;53.716;19.940;2023-02-02T04:31:11;98804.79;;;2.75;100.00
57900;BME280;60605;53.716;19.940;2023-02-02T04:36:15;98808.96;;;2.76;100.00
57900;BME280;60605;53.716;19.940;2023-02-02T04:41:18;98813.81;;;2.77;100.00
57900;BME280;60605;53.716;19.940;2023-02-02T04:46:21;98811.67;;;2.77;100.00
57900;BME280;60605;53.716;19.940;2023-02-02T04:51:24;98810.96;;;2.77;100.00
57900;BME280;60605;53.716;19.940;2023-02-02T04:56:28;98816.50;;;2.76;100.00
57900;BME280;60605;53.716;19.940;2023-02-02T05:01:31;98817.17;;;2.75;100.00
57900;BME280;60605;53.716;19.940;2023-02-02T05:06:34;98820.45;;;2.74;100.00
57900;BME280;60605;53.716;19.940;2023-02-02T05:11:39;98819.09;;;2.71;100.00
57900;BME280;60605;53.716;19.940;2023-02-02T05:16:46;98816.62;;;2.67;100.00
57900;BME280;60605;53.716;19.940;2023-02-02T05:21:49;98820.55;;;2.63;100.00
57900;BME280;60605;53.716;19.940;2023-02-02T05:26:53;98822.55;;;2.60;100.00
57900;BME280;60605;53.716;19.940;2023-02-02T05:32:00;98832.50;;;2.59;100.00
57900;BME280;60605;53.716;19.940;2023-02-02T05:37:04;98835.90;;;2.59;100.00
57900;BME280;60605;53.716;19.940;2023-02-02T05:42:07;98842.79;;;2.59;100.00
57900;BME280;60605;53.716;19.940;2023-02-02T05:47:10;98841.08;;;2.58;100.00
57900;BME280;60605;53.716;19.940;2023-02-02T05:52:14;98837.23;;;2.58;100.00
57900;BME280;60605;53.716;19.940;2023-02-02T05:57:19;98839.27;;;2.53;100.00
57900;BME280;60605;53.716;19.940;2023-02-02T06:02:23;98855.95;;;2.46;100.00
57900;BME280;60605;53.716;19.940;2023-02-02T06:07:26;98863.21;;;2.39;100.00
57900;BME280;60605;53.716;19.940;2023-02-02T06:12:29;98866.95;;;2.35;100.00
57900;BME280;60605;53.716;19.940;2023-02-02T06:17:32;98871.55;;;2.31;100.00
57900;BME280;60605;53.716;19.940;2023-02-02T06:22:35;98885.39;;;2.32;100.00
57900;BME280;60605;53.716;19.940;2023-02-02T06:27:39;98883.29;;;2.36;100.00
57900;BME280;60605;53.716;19.940;2023-02-02T06:32:43;98882.92;;;2.42;100.00
57900;BME280;60605;53.716;19.940;2023-02-02T06:37:46;98894.50;;;2.48;100.00
57900;BME280;60605;53.716;19.940;2023-02-02T06:42:55;98899.81;;;2.54;100.00
57900;BME280;60605;53.716;19.940;2023-02-02T06:47:59;98902.06;;;2.58;100.00
57900;BME280;60605;53.716;19.940;2023-02-02T06:53:05;98906.10;;;2.62;100.00
57900;BME280;60605;53.716;19.940;2023-02-02T06:58:08;98914.70;;;2.68;100.00
57900;BME280;60605;53.716;19.940;2023-02-02T07:03:11;98922.70;;;2.73;100.00
57900;BME280;60605;53.716;19.940;2023-02-02T07:08:15;98926.26;;;2.77;100.00
57900;BME280;60605;53.716;19.940;2023-02-02T07:13:18;98940.20;;;2.83;100.00
57900;BME280;60605;53.716;19.940;2023-02-02T07:18:21;98943.41;;;2.90;100.00
57900;BME280;60605;53.716;19.940;2023-02-02T07:23:26;98948.91;;;2.99;100.00
57900;BME280;60605;53.716;19.940;2023-02-02T07:28:29;98956.98;;;3.06;100.00
57900;BME280;60605;53.716;19.940;2023-02-02T07:33:33;98962.15;;;3.09;100.00
57900;BME280;60605;53.716;19.940;2023-02-02T07:38:41;98967.35;;;3.12;100.00
57900;BME280;60605;53.716;19.940;2023-02-02T07:43:48;98976.06;;;3.18;100.00
57900;BME280;60605;53.716;19.940;2023-02-02T07:48:55;98980.78;;;3.32;100.00
57900;BME280;60605;53.716;19.940;2023-02-02T07:53:58;98984.20;;;3.49;100.00
57900;BME280;60605;53.716;19.940;2023-02-02T07:59:02;98986.95;;;3.55;100.00
57900;BME280;60605;53.716;19.940;2023-02-02T08:04:06;98997.51;;;3.56;100.00
57900;BME280;60605;53.716;19.940;2023-02-02T08:09:09;99003.07;;;3.53;100.00
57900;BME280;60605;53.716;19.940;2023-02-02T08:14:12;99011.05;;;3.52;100.00
57900;BME280;60605;53.716;19.940;2023-02-02T08:19:16;99018.21;;;3.65;100.00
57900;BME280;60605;53.716;19.940;2023-02-02T08:24:19;99019.52;;;3.87;100.00
57900;BME280;60605;53.716;19.940;2023-02-02T08:29:22;99031.92;;;4.09;100.00
57900;BME280;60605;53.716;19.940;2023-02-02T08:34:25;99038.86;;;4.22;100.00
57900;BME280;60605;53.716;19.940;2023-02-02T08:39:28;99046.87;;;4.21;100.00
57900;BME280;60605;53.716;19.940;2023-02-02T08:44:31;99057.52;;;4.15;100.00
57900;BME280;60605;53.716;19.940;2023-02-02T08:49:54;99071.17;;;4.05;100.00
57900;BME280;60605;53.716;19.940;2023-02-02T08:54:58;99086.09;;;3.93;100.00
57900;BME280;60605;53.716;19.940;2023-02-02T09:00:03;99100.42;;;3.85;100.00
57900;BME280;60605;53.716;19.940;2023-02-02T09:05:14;99109.88;;;3.82;100.00
57900;BME280;60605;53.716;19.940;2023-02-02T09:10:18;99119.30;;;3.76;100.00
57900;BME280;60605;53.716;19.940;2023-02-02T09:15:21;99133.31;;;3.69;100.00
57900;BME280;60605;53.716;19.940;2023-02-02T09:20:27;99139.75;;;3.70;100.00
57900;BME280;60605;53.716;19.940;2023-02-02T09:25:30;99153.48;;;3.80;100.00
57900;BME280;60605;53.716;19.940;2023-02-02T09:30:34;99173.21;;;4.00;100.00
57900;BME280;60605;53.716;19.940;2023-02-02T09:35:37;99186.46;;;4.19;100.00
57900;BME280;60605;53.716;19.940;2023-02-02T09:40:40;99203.20;;;4.22;100.00
57900;BME280;60605;53.716;19.940;2023-02-02T09:45:55;99214.77;;;4.11;100.00
57900;BME280;60605;53.716;19.940;2023-02-02T09:51:15;99225.84;;;4.06;100.00
57900;BME280;60605;53.716;19.940;2023-02-02T09:56:29;99232.23;;;4.19;100.00
57900;BME280;60605;53.716;19.940;2023-02-02T10:01:37;99242.23;;;4.62;100.00
57900;BME280;60605;53.716;19.940;2023-02-02T10:06:53;99247.81;;;5.08;100.00
57900;BME280;60605;53.716;19.940;2023-02-02T10:12:13;99256.36;;;5.22;100.00
57900;BME280;60605;53.716;19.940;2023-02-02T10:22:26;99275.05;;;5.52;100.00
57900;BME280;60605;53.716;19.940;2023-02-02T10:27:37;99278.28;;;6.11;100.00
57900;BME280;60605;53.716;19.940;2023-02-02T10:32:56;99288.83;;;6.33;100.00
57900;BME280;60605;53.716;19.940;2023-02-02T11:05:30;99349.02;;;6.22;100.00
57900;BME280;60605;53.716;19.940;2023-02-02T11:10:54;99354.23;;;6.39;100.00
57900;BME280;60605;53.716;19.940;2023-02-02T11:26:40;99372.83;;;6.42;100.00
57900;BME280;60605;53.716;19.940;2023-02-02T11:31:44;99383.98;;;6.23;100.00
57900;BME280;60605;53.716;19.940;2023-02-02T11:37:03;99394.87;;;6.00;100.00
57900;BME280;60605;53.716;19.940;2023-02-02T11:47:26;99424.21;;;5.27;100.00
57900;BME280;60605;53.716;19.940;2023-02-02T11:52:31;99435.80;;;5.05;100.00
57900;BME280;60605;53.716;19.940;2023-02-02T11:57:35;99445.86;;;5.02;100.00
57900;BME280;60605;53.716;19.940;2023-02-02T12:02:45;99461.06;;;5.02;100.00
57900;BME280;60605;53.716;19.940;2023-02-02T12:07:49;99470.01;;;5.08;100.00
57900;BME280;60605;53.716;19.940;2023-02-02T12:13:00;99474.11;;;5.04;100.00
57900;BME280;60605;53.716;19.940;2023-02-02T12:28:44;99502.68;;;4.78;100.00
57900;BME280;60605;53.716;19.940;2023-02-02T12:44:33;99527.67;;;4.91;100.00
57900;BME280;60605;53.716;19.940;2023-02-02T12:49:53;99531.66;;;4.78;99.99
57900;BME280;60605;53.716;19.940;2023-02-02T12:55:46;99536.30;;;4.74;100.00
57900;BME280;60605;53.716;19.940;2023-02-02T13:11:51;99557.38;;;4.60;100.00
57900;BME280;60605;53.716;19.940;2023-02-02T13:17:03;99569.96;;;4.57;100.00
57900;BME280;60605;53.716;19.940;2023-02-02T13:22:16;99592.23;;;4.39;100.00
57900;BME280;60605;53.716;19.940;2023-02-02T13:27:20;99602.61;;;4.23;100.00
57900;BME280;60605;53.716;19.940;2023-02-02T13:32:31;99615.42;;;4.26;100.00
57900;BME280;60605;53.716;19.940;2023-02-02T13:43:50;99641.98;;;4.69;100.00
57900;BME280;60605;53.716;19.940;2023-02-02T14:00:40;99676.67;;;4.79;100.00
57900;BME280;60605;53.716;19.940;2023-02-02T14:11:18;99706.22;;;4.41;100.00
57900;BME280;60605;53.716;19.940;2023-02-02T14:26:44;99730.40;;;3.21;100.00
57900;BME280;60605;53.716;19.940;2023-02-02T14:31:53;99744.23;;;2.98;100.00
57900;BME280;60605;53.716;19.940;2023-02-02T14:53:20;99794.52;;;2.58;100.00
57900;BME280;60605;53.716;19.940;2023-02-02T14:58:42;99817.54;;;2.48;100.00
57900;BME280;60605;53.716;19.940;2023-02-02T15:14:24;99860.32;;;2.32;100.00
57900;BME280;60605;53.716;19.940;2023-02-02T15:19:37;99873.82;;;2.30;100.00
57900;BME280;60605;53.716;19.940;2023-02-02T15:24:48;99895.27;;;2.28;100.00
57900;BME280;60605;53.716;19.940;2023-02-02T15:30:17;99911.18;;;2.27;100.00
57900;BME280;60605;53.716;19.940;2023-02-02T15:35:27;99929.22;;;2.26;100.00
57900;BME280;60605;53.716;19.940;2023-02-02T15:40:35;99936.56;;;2.20;100.00
57900;BME280;60605;53.716;19.940;2023-02-02T15:45:48;99948.57;;;2.12;100.00
57900;BME280;60605;53.716;19.940;2023-02-02T15:50:58;99961.40;;;2.05;100.00
57900;BME280;60605;53.716;19.940;2023-02-02T15:56:27;99975.83;;;1.95;100.00
57900;BME280;60605;53.716;19.940;2023-02-02T16:01:32;99997.88;;;1.84;100.00
57900;BME280;60605;53.716;19.940;2023-02-02T16:06:47;100013.41;;;1.76;100.00
57900;BME280;60605;53.716;19.940;2023-02-02T16:11:51;100030.30;;;1.71;100.00
57900;BME280;60605;53.716;19.940;2023-02-02T16:17:12;100050.89;;;1.68;100.00
57900;BME280;60605;53.716;19.940;2023-02-02T16:22:21;100059.76;;;1.67;100.00
57900;BME280;60605;53.716;19.940;2023-02-02T16:27:28;100059.54;;;1.65;100.00
57900;BME280;60605;53.716;19.940;2023-02-02T16:32:37;100085.34;;;1.61;100.00
57900;BME280;60605;53.716;19.940;2023-02-02T16:37:42;100106.64;;;1.59;100.00
57900;BME280;60605;53.716;19.940;2023-02-02T16:43:26;100110.21;;;1.58;100.00
57900;BME280;60605;53.716;19.940;2023-02-02T16:48:36;100123.55;;;1.58;100.00
57900;BME280;60605;53.716;19.940;2023-02-02T16:53:46;100147.65;;;1.59;100.00
57900;BME280;60605;53.716;19.940;2023-02-02T16:58:50;100164.42;;;1.58;100.00
57900;BME280;60605;53.716;19.940;2023-02-02T17:04:00;100171.43;;;1.53;100.00
57900;BME280;60605;53.716;19.940;2023-02-02T17:09:26;100177.23;;;1.47;100.00
57900;BME280;60605;53.716;19.940;2023-02-02T17:14:36;100188.45;;;1.43;100.00
57900;BME280;60605;53.716;19.940;2023-02-02T17:19:39;100199.82;;;1.38;100.00
57900;BME280;60605;53.716;19.940;2023-02-02T17:24:47;100207.45;;;1.32;100.00
57900;BME280;60605;53.716;19.940;2023-02-02T17:29:51;100220.66;;;1.23;100.00
57900;BME280;60605;53.716;19.940;2023-02-02T17:34:55;100234.10;;;1.14;100.00
57900;BME280;60605;53.716;19.940;2023-02-02T17:39:59;100244.29;;;1.03;100.00
57900;BME280;60605;53.716;19.940;2023-02-02T17:45:30;100252.98;;;0.93;100.00
57900;BME280;60605;53.716;19.940;2023-02-02T17:50:36;100263.95;;;0.83;100.00
57900;BME280;60605;53.716;19.940;2023-02-02T17:55:41;100268.64;;;0.76;100.00
57900;BME280;60605;53.716;19.940;2023-02-02T18:00:46;100278.40;;;0.71;100.00
57900;BME280;60605;53.716;19.940;2023-02-02T18:05:52;100284.89;;;0.68;100.00
57900;BME280;60605;53.716;19.940;2023-02-02T18:10:58;100286.08;;;0.66;100.00
57900;BME280;60605;53.716;19.940;2023-02-02T18:16:04;100299.89;;;0.61;100.00
57900;BME280;60605;53.716;19.940;2023-02-02T18:21:10;100311.89;;;0.57;100.00
57900;BME280;60605;53.716;19.940;2023-02-02T18:26:19;100315.14;;;0.56;100.00
57900;BME280;60605;53.716;19.940;2023-02-02T18:31:25;100328.16;;;0.59;100.00
57900;BME280;60605;53.716;19.940;2023-02-02T18:36:29;100342.23;;;0.67;100.00
57900;BME280;60605;53.716;19.940;2023-02-02T18:41:32;100349.71;;;0.77;100.00
57900;BME280;60605;53.716;19.940;2023-02-02T18:46:37;100359.23;;;0.86;100.00
57900;BME280;60605;53.716;19.940;2023-02-02T18:51:41;100366.77;;;0.92;100.00
57900;BME280;60605;53.716;19.940;2023-02-02T18:56:44;100372.87;;;0.96;100.00
57900;BME280;60605;53.716;19.940;2023-02-02T19:01:48;100382.63;;;0.97;100.00
57900;BME280;60605;53.716;19.940;2023-02-02T19:06:51;100400.51;;;0.98;100.00
57900;BME280;60605;53.716;19.940;2023-02-02T19:12:14;100404.29;;;0.97;100.00
57900;BME280;60605;53.716;19.940;2023-02-02T19:17:21;100418.66;;;0.92;100.00
57900;BME280;60605;53.716;19.940;2023-02-02T19:22:27;100429.13;;;0.87;100.00
57900;BME280;60605;53.716;19.940;2023-02-02T19:27:34;100435.31;;;0.86;100.00
57900;BME280;60605;53.716;19.940;2023-02-02T19:32:38;100442.73;;;0.86;100.00
57900;BME280;60605;53.716;19.940;2023-02-02T19:37:41;100447.21;;;0.85;100.00
57900;BME280;60605;53.716;19.940;2023-02-02T19:42:53;100453.20;;;0.85;100.00
57900;BME280;60605;53.716;19.940;2023-02-02T19:48:00;100460.67;;;0.83;100.00
57900;BME280;60605;53.716;19.940;2023-02-02T19:53:21;100467.48;;;0.81;100.00
57900;BME280;60605;53.716;19.940;2023-02-02T19:58:28;100468.98;;;0.79;100.00
57900;BME280;60605;53.716;19.940;2023-02-02T20:03:42;100476.63;;;0.74;100.00
57900;BME280;60605;53.716;19.940;2023-02-02T20:08:48;100480.05;;;0.69;100.00
57900;BME280;60605;53.716;19.940;2023-02-02T20:13:52;100488.41;;;0.71;100.00
57900;BME280;60605;53.716;19.940;2023-02-02T20:18:56;100487.13;;;0.75;100.00
57900;BME280;60605;53.716;19.940;2023-02-02T20:23:59;100490.63;;;0.78;100.00
57900;BME280;60605;53.716;19.940;2023-02-02T20:29:18;100494.29;;;0.82;100.00
57900;BME280;60605;53.716;19.940;2023-02-02T20:34:34;100501.43;;;0.86;100.00
57900;BME280;60605;53.716;19.940;2023-02-02T20:39:47;100513.88;;;0.87;100.00
57900;BME280;60605;53.716;19.940;2023-02-02T20:44:52;100519.70;;;0.83;100.00
57900;BME280;60605;53.716;19.940;2023-02-02T20:49:56;100524.80;;;0.77;100.00
57900;BME280;60605;53.716;19.940;2023-02-02T20:55:03;100526.19;;;0.71;100.00
57900;BME280;60605;53.716;19.940;2023-02-02T21:00:15;100532.02;;;0.64;100.00
57900;BME280;60605;53.716;19.940;2023-02-02T21:05:22;100534.56;;;0.53;100.00
57900;BME280;60605;53.716;19.940;2023-02-02T21:10:26;100541.92;;;0.44;100.00
57900;BME280;60605;53.716;19.940;2023-02-02T21:15:30;100547.51;;;0.38;100.00
57900;BME280;60605;53.716;19.940;2023-02-02T21:20:34;100559.21;;;0.36;100.00
57900;BME280;60605;53.716;19.940;2023-02-02T21:25:37;100564.09;;;0.37;100.00
57900;BME280;60605;53.716;19.940;2023-02-02T21:30:41;100573.29;;;0.36;100.00
57900;BME280;60605;53.716;19.940;2023-02-02T21:35:44;100575.88;;;0.27;100.00
57900;BME280;60605;53.716;19.940;2023-02-02T21:40:48;100579.15;;;0.12;100.00
57900;BME280;60605;53.716;19.940;2023-02-02T21:45:53;100574.44;;;-0.03;100.00
57900;BME280;60605;53.716;19.940;2023-02-02T21:51:35;100579.08;;;-0.11;100.00
57900;BME280;60605;53.716;19.940;2023-02-02T21:56:39;100591.32;;;-0.17;100.00
57900;BME280;60605;53.716;19.940;2023-02-02T22:01:44;100604.21;;;-0.26;100.00
57900;BME280;60605;53.716;19.940;2023-02-02T22:06:53;100615.29;;;-0.36;100.00
57900;BME280;60605;53.716;19.940;2023-02-02T22:12:00;100622.98;;;-0.50;100.00
57900;BME280;60605;53.716;19.940;2023-02-02T22:22:32;100639.26;;;-0.74;100.00
57900;BME280;60605;53.716;19.940;2023-02-02T22:27:47;100650.74;;;-0.83;100.00
57900;BME280;60605;53.716;19.940;2023-02-02T22:32:52;100667.93;;;-0.91;100.00
57900;BME280;60605;53.716;19.940;2023-02-02T22:37:56;100671.34;;;-1.00;100.00
57900;BME280;60605;53.716;19.940;2023-02-02T22:43:01;100677.80;;;-1.11;100.00
57900;BME280;60605;53.716;19.940;2023-02-02T22:48:05;100674.71;;;-1.20;100.00
57900;BME280;60605;53.716;19.940;2023-02-02T22:53:09;100673.91;;;-1.22;100.00
57900;BME280;60605;53.716;19.940;2023-02-02T22:58:12;100679.47;;;-1.16;100.00
57900;BME280;60605;53.716;19.940;2023-02-02T23:03:15;100675.03;;;-1.11;100.00
57900;BME280;60605;53.716;19.940;2023-02-02T23:08:18;100676.87;;;-1.10;100.00
57900;BME280;60605;53.716;19.940;2023-02-02T23:13:22;100673.58;;;-1.14;100.00
57900;BME280;60605;53.716;19.940;2023-02-02T23:18:25;100675.08;;;-1.24;100.00
57900;BME280;60605;53.716;19.940;2023-02-02T23:23:28;100677.48;;;-1.34;100.00
57900;BME280;60605;53.716;19.940;2023-02-02T23:28:31;100682.14;;;-1.45;100.00
57900;BME280;60605;53.716;19.940;2023-02-02T23:33:35;100688.23;;;-1.56;100.00
57900;BME280;60605;53.716;19.940;2023-02-02T23:38:38;100687.68;;;-1.67;100.00
57900;BME280;60605;53.716;19.940;2023-02-02T23:43:41;100683.05;;;-1.82;100.00
57900;BME280;60605;53.716;19.940;2023-02-02T23:48:44;100686.15;;;-1.97;100.00
57900;BME280;60605;53.716;19.940;2023-02-02T23:53:48;100694.03;;;-2.14;100.00
57900;BME280;60605;53.716;19.940;2023-02-02T23:58:51;100701.02;;;-2.31;100.00
